Time;durP1;ratioP1;P1;durP2;ratioP2;P2;SDS_P1;SDS_P2;PMS_P1;PMS_P2;Temp;Humidity;BMP_temperature;BMP_pressure;BME280_temperature;BME280_humidity;BME280_pressure;Samples;Min_cycle;Max_cycle;Signal;HPM_P1;HPM_P2
2024/04/15 00:02:23;;;;;;;1.30;0.80;;;0.40;99.90;;;;;;1942789;72;26896;-86
2024/04/15 00:07:52;;;;;;;1.10;1.00;;;0.40;99.90;;;;;;1944184;72;27488;-86
2024/04/15 00:10:40;;;;;;;0.80;0.80;;;0.40;99.90;;;;;;1934891;73;25747;-86
2024/04/15 00:13:29;;;;;;;0.90;0.90;;;0.50;99.90;;;;;;1917267;73;25286;-86
2024/04/15 00:16:18;;;;;;;0.80;0.80;;;0.40;99.90;;;;;;1916765;73;25273;-86
2024/04/15 00:19:06;;;;;;;0.73;0.60;;;0.50;99.90;;;;;;1916596;75;25213;-86
2024/04/15 00:21:55;;;;;;;3.13;0.80;;;0.40;99.90;;;;;;1919000;73;25674;-85
2024/04/15 00:24:46;;;;;;;1.53;0.70;;;0.40;99.90;;;;;;1917423;73;25244;-85
2024/04/15 00:27:34;;;;;;;0.67;0.63;;;0.50;99.90;;;;;;1917941;73;25241;-85
2024/04/15 00:30:23;;;;;;;0.63;0.60;;;0.50;99.90;;;;;;1921884;73;25666;-85
2024/04/15 00:35:51;;;;;;;0.80;0.80;;;0.40;99.90;;;;;;1954822;72;26973;-87
2024/04/15 00:38:40;;;;;;;0.87;0.87;;;0.40;99.90;;;;;;1938271;72;25219;-86
2024/04/15 00:41:28;;;;;;;1.03;0.80;;;0.30;99.90;;;;;;1935541;73;25181;-86
2024/04/15 00:46:57;;;;;;;0.53;0.53;;;0.10;99.90;;;;;;1933745;72;27039;-86
2024/04/15 00:49:47;;;;;;;0.70;0.70;;;0.00;99.90;;;;;;1906843;75;25159;-86
2024/04/15 00:52:36;;;;;;;0.60;0.60;;;-0.20;99.90;;;;;;1885141;75;25686;-86
2024/04/15 00:55:25;;;;;;;0.67;0.67;;;-0.30;99.90;;;;;;1887908;75;25261;-86
2024/04/15 00:58:17;;;;;;;0.77;0.77;;;-0.30;99.90;;;;;;1880588;75;25167;-86
2024/04/15 01:01:07;;;;;;;4.23;0.50;;;-0.40;99.90;;;;;;1845437;76;25198;-86
2024/04/15 01:03:57;;;;;;;0.67;0.67;;;-0.40;99.90;;;;;;1875920;75;25790;-86
2024/04/15 01:06:45;;;;;;;2.40;0.70;;;-0.50;99.90;;;;;;1871171;75;25724;-86
2024/04/15 01:09:34;;;;;;;0.70;0.60;;;-0.50;99.90;;;;;;1879225;75;25647;-85
2024/04/15 01:12:23;;;;;;;0.63;0.63;;;-0.50;99.90;;;;;;1837372;76;25731;-85
2024/04/15 01:15:12;;;;;;;0.60;0.60;;;-0.50;99.90;;;;;;1878228;75;25239;-85
2024/04/15 01:20:40;;;;;;;1.90;0.60;;;-0.60;99.90;;;;;;1935124;72;27008;-86
2024/04/15 01:26:09;;;;;;;0.63;0.63;;;-0.70;99.90;;;;;;1924555;72;27082;-86
2024/04/15 01:28:58;;;;;;;0.73;0.60;;;-0.70;99.90;;;;;;1908048;75;25257;-86
2024/04/15 01:31:46;;;;;;;0.90;0.77;;;-0.80;99.90;;;;;;1901263;75;25684;-86
2024/04/15 01:34:35;;;;;;;2.13;0.80;;;-0.80;99.90;;;;;;1916429;75;25618;-85
2024/04/15 01:37:24;;;;;;;0.93;0.70;;;-0.80;99.90;;;;;;1914532;75;25275;-85
2024/04/15 01:40:12;;;;;;;1.17;0.70;;;-0.90;99.90;;;;;;1897663;75;25346;-85
2024/04/15 01:43:00;;;;;;;1.10;0.60;;;-0.90;99.90;;;;;;1906430;74;25301;-85
2024/04/15 01:45:49;;;;;;;0.60;0.60;;;-0.80;99.90;;;;;;1900773;75;25321;-85
2024/04/15 01:48:38;;;;;;;1.03;0.60;;;-0.70;99.90;;;;;;1890664;75;25310;-85
2024/04/15 01:51:27;;;;;;;1.27;0.67;;;-0.70;99.90;;;;;;1890763;75;25778;-85
2024/04/15 01:54:15;;;;;;;0.50;0.50;;;-0.60;99.90;;;;;;1893325;75;25365;-85
2024/04/15 01:57:03;;;;;;;0.70;0.70;;;-0.50;99.90;;;;;;1856223;76;25260;-85
2024/04/15 02:02:36;;;;;;;2.10;0.70;;;-0.40;99.90;;;;;;1974585;71;27131;-86
2024/04/15 02:05:24;;;;;;;0.60;0.60;;;-0.30;99.90;;;;;;1905078;74;25682;-86
2024/04/15 02:08:13;;;;;;;0.50;0.50;;;-0.30;99.90;;;;;;1898012;75;25313;-86
2024/04/15 02:11:02;;;;;;;3.03;0.60;;;-0.30;99.90;;;;;;1890827;75;25218;-86
2024/04/15 02:13:51;;;;;;;2.43;0.60;;;-0.30;99.90;;;;;;1900489;75;25302;-86
2024/04/15 02:16:39;;;;;;;1.90;0.70;;;-0.40;99.90;;;;;;1903847;74;25204;-86
2024/04/15 02:19:31;;;;;;;0.67;0.67;;;-0.50;99.90;;;;;;1905604;74;25648;-86
2024/04/15 02:22:18;;;;;;;0.67;0.67;;;-0.60;99.90;;;;;;1909872;74;25225;-86
2024/04/15 02:25:07;;;;;;;0.60;0.60;;;-0.70;99.90;;;;;;1900670;75;25273;-86
2024/04/15 02:27:56;;;;;;;0.67;0.67;;;-0.70;99.90;;;;;;1906555;75;25802;-87
2024/04/15 02:30:44;;;;;;;0.60;0.60;;;-0.80;99.90;;;;;;1910369;74;25236;-86
2024/04/15 02:33:33;;;;;;;0.93;0.70;;;-0.80;99.90;;;;;;1910772;74;25236;-86
2024/04/15 02:39:01;;;;;;;0.70;0.70;;;-0.90;99.90;;;;;;1932284;72;27107;-86
2024/04/15 02:41:50;;;;;;;1.33;0.60;;;-0.90;99.90;;;;;;1899325;74;25742;-86
2024/04/15 02:47:19;;;;;;;1.60;0.67;;;-0.90;99.90;;;;;;1922229;72;27040;-86
2024/04/15 02:50:08;;;;;;;0.60;0.60;;;-1.00;99.90;;;;;;1906767;73;25333;-85
2024/04/15 02:52:56;;;;;;;1.13;0.70;;;-1.00;99.90;;;;;;1905500;73;25184;-86
2024/04/15 02:58:24;;;;;;;5.70;0.90;;;-1.10;99.90;;;;;;1925317;72;26989;-86
2024/04/15 03:01:13;;;;;;;0.63;0.50;;;-1.20;99.90;;;;;;1913513;73;25667;-85
2024/04/15 03:04:04;;;;;;;0.50;0.50;;;-1.20;99.90;;;;;;1874682;76;25230;-85
2024/04/15 03:06:54;;;;;;;0.70;0.70;;;-1.40;99.90;;;;;;1824034;78;25683;-85
2024/04/15 03:09:45;;;;;;;1.27;0.60;;;-1.40;99.90;;;;;;1926701;73;25227;-85
2024/04/15 03:12:33;;;;;;;2.03;0.77;;;-1.50;99.90;;;;;;1914876;73;25245;-86
2024/04/15 03:15:21;;;;;;;0.97;0.77;;;-1.50;99.90;;;;;;1864726;76;25232;-85
2024/04/15 03:18:10;;;;;;;0.90;0.83;;;-1.50;99.90;;;;;;1837413;76;25234;-86
2024/04/15 03:23:39;;;;;;;0.97;0.87;;;-1.50;99.90;;;;;;1954079;72;27029;-86
2024/04/15 03:26:28;;;;;;;0.70;0.70;;;-1.50;99.90;;;;;;1919059;74;25205;-86
2024/04/15 03:29:17;;;;;;;2.23;0.70;;;-1.60;99.90;;;;;;1857331;76;25671;-86
2024/04/15 03:32:07;;;;;;;0.80;0.80;;;-1.70;99.90;;;;;;1906781;75;25275;-85
2024/04/15 03:34:55;;;;;;;0.87;0.70;;;-1.70;99.90;;;;;;1891184;75;25163;-85
2024/04/15 03:37:44;;;;;;;0.70;0.70;;;-1.70;99.90;;;;;;1877539;76;25343;-85
2024/04/15 03:43:18;;;;;;;1.00;0.90;;;-1.90;99.90;;;;;;2032725;69;26938;-86
2024/04/15 03:46:07;;;;;;;1.73;0.90;;;-1.90;99.90;;;;;;2008675;71;25313;-85
2024/04/15 03:48:56;;;;;;;1.43;0.73;;;-1.90;99.90;;;;;;1994809;71;25674;-85
2024/04/15 03:51:44;;;;;;;0.80;0.80;;;-1.90;99.90;;;;;;1993257;71;25223;-85
2024/04/15 03:54:36;;;;;;;0.90;0.90;;;-1.90;99.90;;;;;;1982897;71;25253;-87
2024/04/15 04:00:10;;;;;;;1.03;0.93;;;-2.00;99.90;;;;;;1910233;73;27013;-85
2024/04/15 04:05:38;;;;;;;1.37;0.90;;;-2.00;99.90;;;;;;1937222;72;27127;-86
2024/04/15 04:08:27;;;;;;;1.17;0.93;;;-2.00;99.90;;;;;;1910641;75;25221;-86
2024/04/15 04:11:16;;;;;;;1.73;1.03;;;-2.10;99.90;;;;;;1906246;75;25252;-86
2024/04/15 04:14:05;;;;;;;5.53;1.00;;;-2.20;99.90;;;;;;1916198;75;25306;-86
2024/04/15 04:16:53;;;;;;;1.17;1.03;;;-2.20;99.90;;;;;;1917293;75;25680;-86
2024/04/15 04:19:42;;;;;;;1.03;1.00;;;-2.30;99.90;;;;;;1914203;75;25281;-86
2024/04/15 04:22:30;;;;;;;1.43;1.20;;;-2.10;99.90;;;;;;1918022;75;25712;-86
2024/04/15 04:25:18;;;;;;;3.20;1.20;;;-1.80;99.90;;;;;;1916386;75;25213;-85
2024/04/15 04:28:10;;;;;;;3.43;1.10;;;-1.60;99.90;;;;;;1896003;75;25235;-84
2024/04/15 04:31:03;;;;;;;4.50;1.00;;;-1.10;99.90;;;;;;1912916;75;25311;-86
2024/04/15 04:33:51;;;;;;;2.93;0.90;;;-0.60;99.90;;;;;;1891091;75;25683;-87
2024/04/15 04:36:40;;;;;;;0.97;0.90;;;-0.60;99.90;;;;;;1903108;75;25320;-87
2024/04/15 04:39:29;;;;;;;10.43;1.33;;;-0.70;99.90;;;;;;1913423;75;25314;-87
2024/04/15 04:42:23;;;;;;;10.90;1.10;;;-0.80;99.90;;;;;;1905831;73;25220;-87
2024/04/15 04:45:11;;;;;;;4.90;1.30;;;-0.70;99.90;;;;;;1912900;75;25228;-87
2024/04/15 04:48:00;;;;;;;2.47;1.43;;;-0.60;99.90;;;;;;1909639;75;25257;-87
2024/04/15 04:53:35;;;;;;;6.47;1.30;;;-0.20;99.90;;;;;;1940635;72;26920;-86
2024/04/15 04:56:24;;;;;;;1.77;1.07;;;0.00;99.90;;;;;;1914056;75;25235;-86
2024/04/15 04:59:14;;;;;;;1.97;1.03;;;0.20;99.90;;;;;;1864698;76;25269;-86
2024/04/15 05:02:25;;;;;;;2.33;1.50;;;0.40;99.90;;;;;;1874864;75;25321;-86
2024/04/15 05:05:16;;;;;;;6.90;1.97;;;0.50;99.90;;;;;;1864433;75;25659;-86
2024/04/15 05:08:08;;;;;;;7.43;2.97;;;0.60;99.90;;;;;;1863144;75;25329;-86
2024/04/15 05:10:59;;;;;;;4.10;2.33;;;1.10;99.90;;;;;;1842011;76;26804;-86
2024/04/15 05:13:49;;;;;;;6.47;1.97;;;1.30;99.90;;;;;;1860121;76;25310;-85
2024/04/15 05:16:38;;;;;;;5.93;1.83;;;1.50;99.90;;;;;;1874074;75;25826;-86
2024/04/15 05:19:31;;;;;;;23.83;2.70;;;1.60;99.90;;;;;;1873659;75;25212;-86
2024/04/15 05:22:20;;;;;;;4.60;1.57;;;1.80;99.90;;;;;;1880813;75;25263;-86
2024/04/15 05:27:50;;;;;;;5.07;1.30;;;2.20;99.90;;;;;;2036745;69;26911;-86
2024/04/15 05:30:40;;;;;;;3.87;1.20;;;2.60;99.90;;;;;;1989129;72;25260;-86
2024/04/15 05:33:30;;;;;;;1.97;0.90;;;3.00;99.90;;;;;;1996450;72;25292;-86
2024/04/15 05:36:19;;;;;;;1.80;0.70;;;3.40;99.90;;;;;;1980539;72;25766;-85
2024/04/15 05:41:48;;;;;;;4.20;0.90;;;3.90;99.90;;;;;;1948286;72;27546;-86
2024/04/15 05:44:39;;;;;;;4.43;0.80;;;4.00;99.90;;;;;;1921799;73;25638;-85
2024/04/15 05:47:29;;;;;;;0.60;0.60;;;4.20;99.90;;;;;;1925754;73;25205;-86
2024/04/15 05:50:18;;;;;;;0.60;0.60;;;4.30;99.90;;;;;;1918505;73;25227;-85
2024/04/15 05:53:07;;;;;;;2.17;0.60;;;4.40;99.90;;;;;;1935062;73;25345;-86
2024/04/15 05:55:55;;;;;;;0.93;0.63;;;4.20;99.90;;;;;;1925258;73;25317;-86
2024/04/15 05:58:44;;;;;;;3.53;0.60;;;4.40;99.90;;;;;;1901845;75;25259;-86
2024/04/15 06:01:35;;;;;;;9.63;0.50;;;4.80;99.90;;;;;;1907537;75;25736;-86
2024/04/15 06:04:24;;;;;;;4.57;1.47;;;4.80;99.90;;;;;;1903244;75;25740;-87
2024/04/15 06:07:12;;;;;;;0.60;0.60;;;4.60;99.90;;;;;;1898901;75;25266;-86
2024/04/15 06:10:01;;;;;;;0.67;0.60;;;4.50;99.90;;;;;;1900454;75;25213;-86
2024/04/15 06:12:49;;;;;;;3.83;0.60;;;4.40;99.90;;;;;;1898568;73;25341;-86
2024/04/15 06:15:39;;;;;;;0.50;0.50;;;4.30;99.90;;;;;;1875627;76;25218;-86
2024/04/15 06:21:06;;;;;;;0.83;0.57;;;4.10;99.90;;;;;;1931140;72;27037;-86
2024/04/15 06:23:55;;;;;;;0.40;0.40;;;4.50;99.90;;;;;;1898133;75;25594;-86
2024/04/15 06:26:44;;;;;;;6.47;0.67;;;4.60;99.90;;;;;;1891226;73;25218;-86
2024/04/15 06:29:35;;;;;;;0.50;0.50;;;5.00;99.90;;;;;;1900969;73;25264;-86
2024/04/15 06:32:22;;;;;;;1.17;0.47;;;4.90;99.90;;;;;;1903742;73;25223;-86
2024/04/15 06:35:11;;;;;;;0.50;0.47;;;5.00;99.90;;;;;;1913160;73;25261;-86
2024/04/15 06:38:00;;;;;;;1.50;0.50;;;5.40;99.90;;;;;;1914692;73;25214;-87
2024/04/15 06:40:49;;;;;;;0.30;0.30;;;5.70;99.90;;;;;;1908293;73;25212;-86
2024/04/15 06:43:37;;;;;;;0.40;0.40;;;5.30;99.90;;;;;;1921247;73;25224;-86
2024/04/15 06:46:26;;;;;;;0.60;0.60;;;5.00;99.90;;;;;;1915179;73;25312;-86
2024/04/15 06:49:15;;;;;;;3.93;0.50;;;5.10;99.90;;;;;;1925971;73;25301;-86
2024/04/15 06:52:04;;;;;;;0.50;0.50;;;5.70;99.90;;;;;;1897184;75;25246;-86
2024/04/15 06:54:52;;;;;;;2.73;0.77;;;5.30;99.90;;;;;;1914653;73;25664;-86
2024/04/15 06:57:40;;;;;;;2.93;0.63;;;5.30;99.90;;;;;;1912023;73;25242;-86
2024/04/15 07:03:09;;;;;;;3.60;0.70;;;6.10;99.90;;;;;;1948674;72;27036;-86
2024/04/15 07:05:58;;;;;;;0.40;0.40;;;6.40;99.90;;;;;;1909413;75;25241;-86
2024/04/15 07:08:47;;;;;;;1.03;0.67;;;6.30;99.90;;;;;;1903053;75;25240;-86
2024/04/15 07:11:35;;;;;;;3.20;0.40;;;6.30;99.90;;;;;;1894627;75;25708;-86
2024/04/15 07:14:26;;;;;;;0.67;0.30;;;6.80;99.90;;;;;;1891941;75;25163;-86
2024/04/15 07:17:15;;;;;;;2.57;1.00;;;6.80;99.90;;;;;;1910125;75;25166;-86
2024/04/15 07:20:03;;;;;;;0.33;0.33;;;6.10;99.90;;;;;;1885325;75;25711;-86
2024/04/15 07:22:52;;;;;;;1.63;0.53;;;6.20;99.90;;;;;;1903611;75;25170;-86
2024/04/15 07:25:41;;;;;;;1.13;0.50;;;6.70;99.90;;;;;;1897829;75;25299;-86
2024/04/15 07:28:29;;;;;;;4.40;0.53;;;6.90;99.90;;;;;;1896217;75;25279;-87
2024/04/15 07:31:18;;;;;;;0.40;0.40;;;6.90;99.90;;;;;;1899876;75;25309;-86
2024/04/15 07:34:07;;;;;;;2.23;0.40;;;7.00;99.90;;;;;;1894053;75;25673;-87
2024/04/15 07:36:55;;;;;;;0.30;0.30;;;6.70;99.90;;;;;;1907290;75;25225;-87
2024/04/15 07:39:46;;;;;;;0.70;0.70;;;7.10;99.90;;;;;;1889065;75;25681;-87
2024/04/15 07:45:15;;;;;;;0.53;0.50;;;7.70;99.90;;;;;;1965317;72;27009;-87
2024/04/15 07:48:03;;;;;;;0.40;0.40;;;7.60;99.90;;;;;;1917387;74;25320;-87
2024/04/15 07:50:52;;;;;;;1.13;0.47;;;7.40;99.90;;;;;;1916357;73;25238;-87
2024/04/15 07:53:42;;;;;;;5.10;0.57;;;8.20;99.90;;;;;;1926701;73;25248;-87
2024/04/15 07:56:31;;;;;;;1.33;0.57;;;8.70;99.90;;;;;;1895443;74;25242;-87
2024/04/15 07:59:19;;;;;;;0.43;0.43;;;8.80;99.90;;;;;;1879318;76;25244;-86
2024/04/15 08:02:08;;;;;;;0.60;0.60;;;8.80;99.90;;;;;;1906226;74;25755;-87
2024/04/15 08:04:57;;;;;;;0.40;0.40;;;8.60;99.90;;;;;;1895543;75;25233;-87
2024/04/15 08:07:46;;;;;;;0.57;0.50;;;8.40;99.90;;;;;;1914446;74;25227;-87
2024/04/15 08:10:37;;;;;;;5.17;0.80;;;8.80;99.90;;;;;;1918408;74;25663;-87
2024/04/15 08:16:12;;;;;;;2.50;0.90;;;8.70;99.90;;;;;;1931772;72;27099;-88
2024/04/15 08:19:00;;;;;;;2.23;1.50;;;8.70;99.90;;;;;;1889131;75;25655;-87
2024/04/15 08:21:50;;;;;;;2.63;1.53;;;8.60;99.90;;;;;;1893462;75;25159;-86
2024/04/15 08:24:38;;;;;;;1.90;1.63;;;8.90;99.90;;;;;;1880647;75;25202;-87
2024/04/15 08:30:08;;;;;;;3.27;2.13;;;8.40;99.90;;;;;;1935995;72;27133;-88
2024/04/15 08:35:38;;;;;;;5.70;2.37;;;8.10;99.90;;;;;;1932750;72;27106;-86
2024/04/15 08:38:27;;;;;;;3.53;2.93;;;8.30;99.90;;;;;;1912698;75;25243;-87
2024/04/15 08:41:20;;;;;;;8.70;2.40;;;8.60;99.90;;;;;;1913660;73;25204;-86
2024/04/15 08:44:13;;;;;;;3.37;2.33;;;8.50;99.90;;;;;;1904498;75;25624;-87
2024/04/15 08:47:12;;;;;;;7.77;5.00;;;8.20;99.90;;;;;;1907806;75;25197;-87
2024/04/15 08:49:59;;;;;;;8.57;5.40;;;8.20;99.90;;;;;;1910711;73;25183;-87
2024/04/15 08:55:32;;;;;;;8.57;5.73;;;8.30;99.90;;;;;;1979751;71;27555;-88
2024/04/15 08:58:23;;;;;;;16.33;7.10;;;8.30;99.90;;;;;;1910605;74;25224;-86
2024/04/15 09:01:13;;;;;;;6.77;4.13;;;8.30;99.90;;;;;;1916523;74;25245;-86
2024/04/15 09:06:42;;;;;;;8.37;5.93;;;8.30;99.90;;;;;;1954686;72;27075;-86
2024/04/15 09:12:13;;;;;;;9.37;5.63;;;8.10;99.90;;;;;;1947986;72;27109;-86
2024/04/15 09:17:46;;;;;;;6.67;3.83;;;8.20;99.90;;;;;;1942360;72;27069;-86
2024/04/15 09:20:34;;;;;;;2.23;1.50;;;8.20;99.90;;;;;;1840638;77;25299;-86
2024/04/15 09:23:23;;;;;;;1.77;1.17;;;8.50;99.90;;;;;;1910512;75;25786;-86
2024/04/15 09:26:14;;;;;;;1.90;1.50;;;8.50;99.90;;;;;;1907342;75;25331;-86
2024/04/15 09:29:04;;;;;;;2.27;1.40;;;8.70;99.90;;;;;;1905480;75;25219;-86
2024/04/15 09:31:52;;;;;;;1.30;1.20;;;8.80;99.90;;;;;;1905599;75;25205;-85
2024/04/15 09:34:41;;;;;;;1.30;0.63;;;8.80;99.90;;;;;;1901508;75;25276;-85
2024/04/15 09:37:31;;;;;;;0.67;0.67;;;8.50;99.90;;;;;;1898012;75;25741;-85
2024/04/15 09:40:25;;;;;;;1.87;1.10;;;8.20;99.90;;;;;;1915938;75;25763;-85
2024/04/15 09:43:12;;;;;;;3.23;1.23;;;8.30;99.90;;;;;;1900954;75;25222;-85
2024/04/15 09:48:43;;;;;;;4.20;1.00;;;8.60;99.90;;;;;;1925019;72;27103;-87
2024/04/15 09:51:33;;;;;;;2.53;1.60;;;8.70;99.90;;;;;;1887208;75;25319;-87
2024/04/15 09:57:07;;;;;;;0.70;0.70;;;8.50;99.90;;;;;;1929013;72;27605;-86
2024/04/15 09:59:57;;;;;;;1.40;1.07;;;8.30;99.90;;;;;;1918189;73;25291;-86
2024/04/15 10:05:33;;;;;;;1.20;0.80;;;8.40;99.90;;;;;;1931111;72;27057;-87
2024/04/15 10:08:23;;;;;;;1.27;0.60;;;8.20;99.90;;;;;;1909023;75;25765;-87
2024/04/15 10:11:12;;;;;;;1.40;0.60;;;8.30;99.90;;;;;;1904351;75;25325;-86
2024/04/15 10:14:01;;;;;;;0.90;0.70;;;8.10;99.90;;;;;;1885233;75;25209;-87
2024/04/15 10:16:51;;;;;;;0.50;0.50;;;8.20;99.90;;;;;;1910319;75;25291;-86
2024/04/15 10:19:41;;;;;;;0.50;0.50;;;8.30;99.90;;;;;;1901840;75;25176;-86
2024/04/15 10:22:30;;;;;;;1.17;0.50;;;8.60;99.90;;;;;;1898973;75;25282;-87
2024/04/15 10:25:25;;;;;;;0.50;0.50;;;8.70;99.90;;;;;;1891288;75;25278;-87
2024/04/15 10:33:50;;;;;;;0.57;0.57;;;8.10;99.90;;;;;;1928579;72;26953;-87
2024/04/15 10:36:42;;;;;;;0.60;0.57;;;8.20;99.90;;;;;;1903215;75;25220;-87
2024/04/15 10:39:32;;;;;;;0.73;0.47;;;8.50;99.90;;;;;;1905621;73;25676;-87
2024/04/15 10:42:21;;;;;;;0.53;0.53;;;8.40;99.90;;;;;;1854380;75;25390;-87
2024/04/15 10:45:15;;;;;;;0.60;0.50;;;8.30;99.90;;;;;;1801769;78;25348;-88
2024/04/15 10:48:04;;;;;;;0.77;0.77;;;8.50;99.90;;;;;;1907034;73;25280;-87
2024/04/15 10:50:52;;;;;;;6.03;0.70;;;8.80;99.90;;;;;;1859589;76;25224;-87
2024/04/15 10:53:41;;;;;;;0.50;0.50;;;8.90;99.90;;;;;;1823449;77;25259;-86
2024/04/15 10:56:30;;;;;;;0.80;0.70;;;9.20;99.90;;;;;;1829308;78;25251;-85
2024/04/15 10:59:19;;;;;;;0.97;0.50;;;9.10;99.90;;;;;;1831622;78;25282;-88
2024/04/15 11:02:11;;;;;;;1.53;0.53;;;9.00;99.90;;;;;;1806948;78;25243;-87
2024/04/15 11:05:00;;;;;;;0.63;0.60;;;9.00;99.90;;;;;;1835521;78;25824;-88
2024/04/15 11:07:56;;;;;;;1.80;0.70;;;9.10;99.90;;;;;;1856414;76;25254;-88
2024/04/15 11:10:47;;;;;;;0.70;0.70;;;9.00;99.90;;;;;;1852533;76;25696;-88
2024/04/15 11:16:18;;;;;;;1.07;0.50;;;9.50;99.90;;;;;;1937932;72;27037;-87
2024/04/15 11:22:09;;;;;;;0.50;0.50;;;9.60;99.90;;;;;;1951296;72;27178;-88
2024/04/15 11:27:37;;;;;;;0.50;0.50;;;9.40;99.90;;;;;;1936620;72;26989;-87
2024/04/15 11:33:06;;;;;;;0.73;0.60;;;9.30;99.90;;;;;;1917691;72;27410;-88
2024/04/15 11:35:56;;;;;;;1.60;0.60;;;9.10;99.90;;;;;;1911275;74;25741;-87
2024/04/15 11:38:45;;;;;;;0.50;0.50;;;8.90;99.90;;;;;;1897541;73;25718;-88
2024/04/15 11:41:33;;;;;;;0.70;0.67;;;9.00;99.90;;;;;;1896712;74;25343;-88
2024/04/15 11:44:22;;;;;;;0.47;0.47;;;9.00;99.90;;;;;;1904408;73;25183;-87
2024/04/15 11:47:18;;;;;;;1.17;0.50;;;8.90;99.90;;;;;;1909456;73;25301;-87
2024/04/15 11:50:10;;;;;;;0.50;0.50;;;9.00;99.90;;;;;;1862499;76;25782;-87
2024/04/15 11:52:59;;;;;;;0.47;0.40;;;9.20;99.90;;;;;;1848653;76;25827;-87
2024/04/15 11:58:31;;;;;;;1.60;0.50;;;9.50;99.90;;;;;;2025035;69;27477;-88
2024/04/15 12:04:01;;;;;;;2.77;0.47;;;9.40;99.90;;;;;;1947683;72;27066;-88
2024/04/15 12:09:46;;;;;;;0.40;0.40;;;8.90;99.90;;;;;;1961091;72;27055;-88
2024/04/15 12:12:35;;;;;;;0.43;0.43;;;8.90;99.90;;;;;;1938008;73;25279;-88
2024/04/15 12:15:23;;;;;;;1.50;0.40;;;8.90;99.90;;;;;;1917678;72;25228;-86
2024/04/15 12:18:12;;;;;;;0.90;0.30;;;8.90;99.90;;;;;;1934324;73;25196;-86
2024/04/15 12:21:01;;;;;;;0.50;0.50;;;9.20;99.90;;;;;;1934506;73;25728;-87
2024/04/15 12:23:50;;;;;;;0.40;0.40;;;9.40;99.90;;;;;;1857304;75;25822;-86
2024/04/15 12:26:40;;;;;;;0.40;0.40;;;9.00;99.90;;;;;;1894149;75;25194;-87
2024/04/15 12:29:31;;;;;;;0.50;0.40;;;8.90;99.90;;;;;;1887986;75;25299;-86
2024/04/15 12:32:22;;;;;;;2.73;0.60;;;8.90;99.90;;;;;;1883536;75;25200;-88
2024/04/15 12:35:12;;;;;;;0.40;0.40;;;8.80;99.90;;;;;;1899656;75;25293;-88
2024/04/15 12:38:00;;;;;;;0.53;0.53;;;8.70;99.90;;;;;;1897896;75;25682;-88
2024/04/15 12:43:44;;;;;;;0.47;0.47;;;8.40;99.90;;;;;;1945098;72;26989;-88
2024/04/15 12:49:15;;;;;;;0.30;0.30;;;8.60;99.90;;;;;;1935826;72;27042;-88
2024/04/15 12:54:46;;;;;;;0.87;0.50;;;8.20;99.90;;;;;;1932895;72;27051;-88
2024/04/15 12:57:36;;;;;;;0.30;0.30;;;8.40;99.90;;;;;;1907563;75;25248;-88
2024/04/15 13:00:26;;;;;;;0.60;0.40;;;8.40;99.90;;;;;;1879169;75;25672;-88
2024/04/15 13:06:00;;;;;;;0.47;0.47;;;8.50;99.90;;;;;;1945379;72;27038;-88
2024/04/15 13:08:52;;;;;;;0.40;0.40;;;8.30;99.90;;;;;;1876649;75;25238;-88
2024/04/15 13:11:40;;;;;;;6.47;0.40;;;8.10;99.90;;;;;;1915082;73;25770;-88
2024/04/15 13:14:30;;;;;;;0.73;0.50;;;7.90;99.90;;;;;;1918642;73;25776;-88
2024/04/15 13:17:20;;;;;;;0.37;0.37;;;7.90;99.90;;;;;;1927945;73;25258;-88
2024/04/15 13:20:12;;;;;;;1.07;0.30;;;7.80;99.90;;;;;;1924012;73;25701;-87
2024/04/15 13:23:03;;;;;;;2.83;0.43;;;7.80;99.90;;;;;;1919703;73;25373;-86
2024/04/15 13:25:51;;;;;;;0.43;0.40;;;7.90;99.90;;;;;;1931282;73;25240;-88
2024/04/15 13:28:39;;;;;;;1.60;0.50;;;7.80;99.90;;;;;;1922891;73;25786;-87
2024/04/15 13:31:28;;;;;;;1.30;0.30;;;7.80;99.90;;;;;;1886030;75;25742;-87
2024/04/15 13:37:02;;;;;;;1.07;0.50;;;7.70;99.90;;;;;;1965598;72;27002;-88
2024/04/15 13:39:51;;;;;;;0.50;0.50;;;7.90;99.90;;;;;;1939668;73;25238;-88
2024/04/15 13:42:39;;;;;;;3.23;0.40;;;8.10;99.90;;;;;;1934329;73;25677;-88
2024/04/15 13:45:28;;;;;;;0.40;0.40;;;8.20;99.90;;;;;;1918306;73;25215;-88
2024/04/15 13:50:58;;;;;;;1.37;0.40;;;8.10;99.90;;;;;;1940472;72;27026;-88
2024/04/15 13:53:48;;;;;;;2.37;0.40;;;8.00;99.90;;;;;;1857434;76;25845;-88
2024/04/15 13:56:37;;;;;;;0.47;0.33;;;8.00;99.90;;;;;;1809613;78;25274;-87
2024/04/15 13:59:26;;;;;;;2.83;0.47;;;8.00;99.90;;;;;;1834587;78;25268;-87
2024/04/15 14:02:15;;;;;;;0.67;0.60;;;8.00;99.90;;;;;;1833470;78;25708;-87
2024/04/15 14:05:05;;;;;;;1.93;0.50;;;8.10;99.90;;;;;;1824908;78;25243;-87
2024/04/15 14:10:33;;;;;;;0.40;0.40;;;8.40;99.90;;;;;;1933776;72;27032;-88
2024/04/15 14:13:22;;;;;;;1.83;0.47;;;8.30;99.90;;;;;;1916213;74;25220;-88
2024/04/15 14:16:11;;;;;;;0.50;0.50;;;8.10;99.90;;;;;;1914714;75;25765;-87
2024/04/15 14:21:39;;;;;;;0.40;0.40;;;8.30;99.90;;;;;;1917051;72;26933;-88
2024/04/15 14:24:28;;;;;;;0.60;0.50;;;8.40;99.90;;;;;;1912694;74;25238;-87
2024/04/15 14:27:16;;;;;;;1.33;0.43;;;8.70;99.90;;;;;;1915762;73;25748;-88
2024/04/15 14:32:45;;;;;;;0.50;0.50;;;8.60;99.90;;;;;;1953736;72;27014;-87
2024/04/15 14:38:13;;;;;;;0.47;0.47;;;8.60;99.90;;;;;;1937457;72;27027;-88
2024/04/15 14:44:17;;;;;;;0.30;0.30;;;8.50;99.90;;;;;;1972634;71;26263;-88
2024/04/15 14:47:07;;;;;;;0.40;0.40;;;8.30;99.90;;;;;;2011119;70;25854;-89
2024/04/15 14:52:45;;;;;;;0.40;0.40;;;8.20;99.90;;;;;;1949511;72;26948;-88
2024/04/15 14:58:15;;;;;;;0.40;0.40;;;8.50;99.90;;;;;;1941974;72;26893;-88
2024/04/15 15:01:05;;;;;;;0.37;0.37;;;8.60;99.90;;;;;;1943972;73;25330;-87
2024/04/15 15:03:53;;;;;;;0.80;0.60;;;8.60;99.90;;;;;;1942945;73;25250;-87
2024/04/15 15:06:42;;;;;;;0.60;0.60;;;8.70;99.90;;;;;;1916391;73;25198;-87
2024/04/15 15:09:30;;;;;;;0.83;0.40;;;8.60;99.90;;;;;;1889283;75;25268;-87
2024/04/15 15:12:20;;;;;;;0.87;0.40;;;8.50;99.90;;;;;;1881270;75;25320;-87
2024/04/15 15:15:11;;;;;;;0.33;0.30;;;8.40;99.90;;;;;;1896708;75;25200;-87
2024/04/15 15:17:59;;;;;;;0.40;0.40;;;8.20;99.90;;;;;;1884546;74;25323;-87
2024/04/15 15:20:48;;;;;;;0.30;0.30;;;8.10;99.90;;;;;;1898116;75;25233;-87
2024/04/15 15:23:38;;;;;;;0.50;0.50;;;8.00;99.90;;;;;;1908387;75;25175;-88
2024/04/15 15:29:44;;;;;;;0.83;0.43;;;8.10;99.90;;;;;;1993123;71;26370;-89
2024/04/15 15:35:13;;;;;;;0.40;0.40;;;8.20;99.90;;;;;;1903740;74;27148;-88
2024/04/15 15:38:01;;;;;;;0.40;0.40;;;8.30;99.90;;;;;;1879399;75;25308;-88
2024/04/15 15:40:50;;;;;;;0.50;0.50;;;8.40;99.90;;;;;;1879052;75;25270;-88
2024/04/15 15:46:23;;;;;;;0.33;0.33;;;8.50;99.90;;;;;;1939660;74;27097;-87
2024/04/15 15:52:05;;;;;;;0.93;0.50;;;8.50;99.90;;;;;;1952220;72;27017;-88
2024/04/15 15:54:53;;;;;;;0.70;0.60;;;8.50;99.90;;;;;;1927682;73;25290;-87
2024/04/15 15:57:42;;;;;;;0.50;0.50;;;8.40;99.90;;;;;;1888999;74;25303;-87
2024/04/15 16:00:32;;;;;;;0.50;0.50;;;8.40;99.90;;;;;;1906527;74;25323;-88
2024/04/15 16:03:21;;;;;;;1.40;0.70;;;8.40;99.90;;;;;;1907086;74;25226;-87
2024/04/15 16:06:10;;;;;;;1.23;0.53;;;8.40;99.90;;;;;;1902962;74;25163;-87
2024/04/15 16:08:58;;;;;;;1.93;0.50;;;8.50;99.90;;;;;;1911448;74;25242;-86
2024/04/15 16:14:28;;;;;;;0.40;0.40;;;8.30;99.90;;;;;;1933475;72;27040;-86
2024/04/15 16:17:17;;;;;;;0.93;0.50;;;8.40;99.90;;;;;;1889904;75;25764;-85
2024/04/15 16:22:49;;;;;;;0.60;0.50;;;8.20;99.90;;;;;;1937650;72;27170;-88
2024/04/15 16:25:37;;;;;;;0.83;0.60;;;8.10;99.90;;;;;;1896889;73;25362;-88
2024/04/15 16:28:26;;;;;;;0.50;0.50;;;8.10;99.90;;;;;;1865425;76;25788;-88
2024/04/15 16:31:15;;;;;;;0.53;0.53;;;8.10;99.90;;;;;;1890476;75;25177;-86
2024/04/15 16:34:04;;;;;;;0.60;0.60;;;8.10;99.90;;;;;;1862635;76;25241;-87
2024/04/15 16:36:53;;;;;;;3.77;0.60;;;8.00;99.90;;;;;;1824540;77;25201;-87
2024/04/15 16:39:42;;;;;;;0.50;0.50;;;7.90;99.90;;;;;;1842091;76;25689;-88
2024/04/15 16:42:30;;;;;;;0.47;0.47;;;7.90;99.90;;;;;;1838513;77;25728;-87
2024/04/15 16:45:22;;;;;;;0.50;0.50;;;7.60;99.90;;;;;;1835833;76;25209;-88
2024/04/15 16:48:11;;;;;;;0.50;0.30;;;7.50;99.90;;;;;;1848552;76;25237;-88
2024/04/15 16:53:44;;;;;;;0.77;0.60;;;7.40;99.90;;;;;;1935138;72;27061;-88
2024/04/15 16:56:33;;;;;;;0.50;0.47;;;7.40;99.90;;;;;;1895054;75;25216;-88
2024/04/15 17:02:01;;;;;;;0.70;0.70;;;7.40;99.90;;;;;;1936188;72;28129;-88
2024/04/15 17:04:49;;;;;;;0.70;0.70;;;7.50;99.90;;;;;;1851714;76;25727;-88
2024/04/15 17:07:38;;;;;;;0.73;0.50;;;7.50;99.90;;;;;;1848909;76;25309;-87
2024/04/15 17:10:27;;;;;;;0.60;0.60;;;7.40;99.90;;;;;;1872523;76;25342;-88
2024/04/15 17:15:56;;;;;;;0.67;0.60;;;7.40;99.90;;;;;;1943076;72;27327;-88
2024/04/15 17:18:44;;;;;;;0.50;0.40;;;7.30;99.90;;;;;;1933131;73;25400;-88
2024/04/15 17:21:33;;;;;;;0.73;0.60;;;7.30;99.90;;;;;;1928239;73;25215;-86
2024/04/15 17:24:22;;;;;;;1.47;0.80;;;7.10;99.90;;;;;;1929071;73;25313;-88
2024/04/15 17:27:10;;;;;;;1.13;1.03;;;7.00;99.90;;;;;;1916977;73;26440;-87
2024/04/15 17:29:59;;;;;;;1.73;0.83;;;6.90;99.90;;;;;;1925516;73;25280;-85
2024/04/15 17:32:48;;;;;;;1.47;0.90;;;6.80;99.90;;;;;;1921575;73;25229;-85
2024/04/15 17:35:38;;;;;;;0.67;0.67;;;6.70;99.90;;;;;;1924006;73;25208;-85